Time;durP1;ratioP1;P1;durP2;ratioP2;P2;SDS_P1;SDS_P2;PMS_P1;PMS_P2;Temp;Humidity;BMP_temperature;BMP_pressure;BME280_temperature;BME280_humidity;BME280_pressure;Samples;Min_cycle;Max_cycle;Signal;HPM_P1;HPM_P2
2023/06/06 00:06:02;;;;;;;;;;;20.30;63.00;;;;;;20923848;28;19924;-53
2023/06/06 00:16:03;;;;;;;;;;;20.30;62.80;;;;;;20923066;28;20425;-53
2023/06/06 00:26:03;;;;;;;;;;;20.30;62.60;;;;;;20922155;28;20500;-54
2023/06/06 00:36:04;;;;;;;;;;;20.20;62.80;;;;;;20922950;28;20013;-53
2023/06/06 00:46:05;;;;;;;;;;;20.20;62.90;;;;;;20921736;28;19995;-54
2023/06/06 00:56:06;;;;;;;;;;;20.10;63.40;;;;;;20920237;28;20027;-53
2023/06/06 01:06:08;;;;;;;;;;;20.10;64.10;;;;;;20918893;28;19925;-54
2023/06/06 01:16:12;;;;;;;;;;;20.00;64.50;;;;;;20919620;28;19932;-54
2023/06/06 01:26:12;;;;;;;;;;;19.90;64.60;;;;;;20917330;28;20000;-52
2023/06/06 01:36:22;;;;;;;;;;;19.90;64.50;;;;;;20918120;28;19983;-54
2023/06/06 01:46:25;;;;;;;;;;;19.80;64.90;;;;;;20917306;28;20301;-54
2023/06/06 01:56:27;;;;;;;;;;;19.80;64.60;;;;;;20915823;28;19925;-53
2023/06/06 02:06:28;;;;;;;;;;;19.70;65.10;;;;;;20915734;28;20019;-53
2023/06/06 02:16:29;;;;;;;;;;;19.60;65.80;;;;;;20915318;28;19968;-52
2023/06/06 02:26:31;;;;;;;;;;;19.60;66.20;;;;;;20915817;28;20301;-52
2023/06/06 02:36:32;;;;;;;;;;;19.60;66.30;;;;;;20912872;28;19929;-53
2023/06/06 02:46:32;;;;;;;;;;;19.50;66.00;;;;;;20912406;28;20337;-55
2023/06/06 02:56:33;;;;;;;;;;;19.40;66.30;;;;;;20913256;28;20374;-52
2023/06/06 03:06:36;;;;;;;;;;;19.40;66.50;;;;;;20920695;28;19971;-53
2023/06/06 03:16:39;;;;;;;;;;;19.40;66.40;;;;;;20927728;28;19924;-52
2023/06/06 03:26:44;;;;;;;;;;;19.40;65.90;;;;;;20926810;28;19975;-53
2023/06/06 03:36:45;;;;;;;;;;;19.30;65.40;;;;;;20927155;28;20366;-54
2023/06/06 03:46:45;;;;;;;;;;;19.20;65.70;;;;;;20926620;28;19925;-53
2023/06/06 03:56:46;;;;;;;;;;;19.20;65.40;;;;;;20925942;28;20018;-54
2023/06/06 04:06:47;;;;;;;;;;;19.20;65.10;;;;;;20925020;28;19964;-54
2023/06/06 04:16:48;;;;;;;;;;;19.10;65.00;;;;;;20923398;28;19931;-54
2023/06/06 04:26:48;;;;;;;;;;;19.00;65.10;;;;;;20924697;28;19972;-52
2023/06/06 04:36:51;;;;;;;;;;;18.90;65.40;;;;;;20922645;28;19925;-53
2023/06/06 04:46:52;;;;;;;;;;;18.90;65.90;;;;;;20922321;28;19925;-54
2023/06/06 04:56:53;;;;;;;;;;;18.80;67.10;;;;;;20920986;28;19932;-53
2023/06/06 05:06:54;;;;;;;;;;;18.80;68.10;;;;;;20920053;28;19924;-54
2023/06/06 05:16:54;;;;;;;;;;;18.80;68.50;;;;;;20919017;28;20023;-53
2023/06/06 05:26:55;;;;;;;;;;;18.60;68.80;;;;;;20916034;28;19925;-54
2023/06/06 05:36:56;;;;;;;;;;;18.50;69.70;;;;;;20916606;28;19975;-55
2023/06/06 05:46:56;;;;;;;;;;;18.40;70.30;;;;;;20917114;28;20394;-54
2023/06/06 05:56:58;;;;;;;;;;;18.40;70.30;;;;;;20915987;28;19978;-54
2023/06/06 06:07:00;;;;;;;;;;;18.50;70.30;;;;;;20914384;28;19925;-57
2023/06/06 06:17:01;;;;;;;;;;;18.60;70.00;;;;;;20914853;28;20393;-53
2023/06/06 06:27:01;;;;;;;;;;;18.70;69.50;;;;;;20913603;28;20290;-54
2023/06/06 06:37:02;;;;;;;;;;;18.90;69.20;;;;;;20912914;28;19925;-53
2023/06/06 06:47:03;;;;;;;;;;;;;;;;;;20913334;28;19931;-55
2023/06/06 06:57:04;;;;;;;;;;;19.30;67.50;;;;;;20912703;28;20412;-54
2023/06/06 07:07:08;;;;;;;;;;;20.20;63.00;;;;;;20912263;28;20023;-53
2023/06/06 07:17:08;;;;;;;;;;;21.00;60.50;;;;;;20910738;28;19931;-56
2023/06/06 07:27:09;;;;;;;;;;;21.60;57.80;;;;;;20911551;28;19980;-54
2023/06/06 07:37:10;;;;;;;;;;;22.10;55.90;;;;;;20909952;28;19932;-55
2023/06/06 07:47:11;;;;;;;;;;;22.30;54.50;;;;;;20909009;28;20016;-56
2023/06/06 07:57:15;;;;;;;;;;;22.70;53.30;;;;;;20922789;28;20058;-54
2023/06/06 08:07:17;;;;;;;;;;;23.00;53.20;;;;;;20925119;28;19925;-56
2023/06/06 08:17:18;;;;;;;;;;;23.60;51.10;;;;;;20923949;28;19994;-54
2023/06/06 08:27:18;;;;;;;;;;;23.60;51.30;;;;;;20922950;28;19928;-58
2023/06/06 08:37:19;;;;;;;;;;;23.70;51.50;;;;;;20922071;28;19924;-55
2023/06/06 08:47:23;;;;;;;;;;;23.70;49.80;;;;;;20920241;28;19929;-54
2023/06/06 08:57:25;;;;;;;;;;;24.20;48.60;;;;;;20920229;28;19924;-55
2023/06/06 09:07:26;;;;;;;;;;;24.00;48.40;;;;;;20917639;28;19951;-54
2023/06/06 09:17:26;;;;;;;;;;;24.10;48.00;;;;;;20916579;28;19925;-54
2023/06/06 09:27:28;;;;;;;;;;;24.10;47.90;;;;;;20916916;28;20285;-57
2023/06/06 09:37:29;;;;;;;;;;;24.40;48.50;;;;;;20916668;28;19925;-58
2023/06/06 09:47:30;;;;;;;;;;;24.80;46.40;;;;;;20913161;28;19929;-58
2023/06/06 09:57:33;;;;;;;;;;;24.80;45.80;;;;;;20911654;28;20062;-56
2023/06/06 10:07:34;;;;;;;;;;;24.80;45.80;;;;;;20913565;28;20374;-57
2023/06/06 10:17:36;;;;;;;;;;;25.00;45.60;;;;;;20912172;28;19924;-57
2023/06/06 10:27:49;;;;;;;;;;;25.10;44.50;;;;;;20912332;28;19939;-57
2023/06/06 10:38:07;;;;;;;;;;;25.60;43.10;;;;;;20910977;28;20313;-57
2023/06/06 10:48:07;;;;;;;;;;;25.70;43.80;;;;;;20909400;28;19944;-56
2023/06/06 10:58:14;;;;;;;;;;;25.90;42.20;;;;;;20910829;28;20330;-54
2023/06/06 11:08:14;;;;;;;;;;;26.10;40.70;;;;;;20912208;28;20323;-56
2023/06/06 11:18:34;;;;;;;;;;;26.20;41.60;;;;;;20909848;28;20000;-58
2023/06/06 11:28:36;;;;;;;;;;;26.50;41.30;;;;;;20920781;28;19925;-54
2023/06/06 11:38:40;;;;;;;;;;;26.30;42.40;;;;;;20925351;28;20028;-54
2023/06/06 11:48:40;;;;;;;;;;;26.40;43.20;;;;;;20923872;28;19980;-57
2023/06/06 11:58:41;;;;;;;;;;;26.40;42.80;;;;;;20924152;28;19936;-55
2023/06/06 12:08:42;;;;;;;;;;;26.60;41.60;;;;;;20922493;28;20078;-56
2023/06/06 12:18:46;;;;;;;;;;;26.60;42.00;;;;;;20923078;28;20349;-55
2023/06/06 12:28:53;;;;;;;;;;;26.90;41.70;;;;;;20922250;28;19925;-55
2023/06/06 12:39:03;;;;;;;;;;;27.00;40.10;;;;;;20919164;28;19925;-55
2023/06/06 12:49:03;;;;;;;;;;;27.20;40.60;;;;;;20919293;28;20351;-56
2023/06/06 12:59:04;;;;;;;;;;;27.20;40.20;;;;;;20917569;28;19968;-55
2023/06/06 13:09:05;;;;;;;;;;;27.60;40.10;;;;;;20919124;28;20393;-55
2023/06/06 13:19:05;;;;;;;;;;;27.60;40.50;;;;;;20918471;28;19924;-55
2023/06/06 13:29:06;;;;;;;;;;;27.50;39.80;;;;;;20918257;28;19971;-56
2023/06/06 13:39:07;;;;;;;;;;;27.50;39.90;;;;;;20917484;28;19925;-55
2023/06/06 13:49:07;;;;;;;;;;;27.60;38.70;;;;;;20914948;28;19925;-56
2023/06/06 13:59:08;;;;;;;;;;;27.60;39.50;;;;;;20916259;28;20306;-54
2023/06/06 14:09:09;;;;;;;;;;;27.80;37.60;;;;;;20915357;28;20378;-55
2023/06/06 14:19:13;;;;;;;;;;;27.70;38.70;;;;;;20914616;28;19947;-55
2023/06/06 14:29:13;;;;;;;;;;;27.80;36.50;;;;;;20913816;28;19925;-55
2023/06/06 14:39:14;;;;;;;;;;;28.00;38.30;;;;;;20913590;28;19925;-55
2023/06/06 14:49:14;;;;;;;;;;;28.10;37.10;;;;;;20913474;28;19931;-55
2023/06/06 14:59:17;;;;;;;;;;;28.20;37.00;;;;;;20915495;28;19925;-56
2023/06/06 15:09:17;;;;;;;;;;;28.30;36.20;;;;;;20929758;28;19925;-55
2023/06/06 15:19:18;;;;;;;;;;;28.20;37.00;;;;;;20927838;28;19978;-55
2023/06/06 15:29:18;;;;;;;;;;;28.10;37.70;;;;;;20927518;28;19984;-56
2023/06/06 15:39:19;;;;;;;;;;;28.20;36.20;;;;;;20926426;28;19925;-57
2023/06/06 15:49:20;;;;;;;;;;;28.20;36.00;;;;;;20923855;28;19928;-61
2023/06/06 15:59:20;;;;;;;;;;;28.30;36.80;;;;;;20924748;28;19968;-55
2023/06/06 16:09:21;;;;;;;;;;;28.40;36.80;;;;;;20922760;28;20033;-58
2023/06/06 16:19:22;;;;;;;;;;;28.40;35.80;;;;;;20922193;28;20385;-57
2023/06/06 16:29:22;;;;;;;;;;;28.40;35.60;;;;;;20921233;28;20278;-55
2023/06/06 16:39:23;;;;;;;;;;;28.40;35.50;;;;;;20919187;28;20024;-55
2023/06/06 16:49:24;;;;;;;;;;;28.40;35.20;;;;;;20917148;28;20470;-59
2023/06/06 16:59:24;;;;;;;;;;;28.60;34.40;;;;;;20911429;28;19931;-57
2023/06/06 17:09:25;;;;;;;;;;;28.50;35.90;;;;;;20917309;28;19925;-61
2023/06/06 17:19:26;;;;;;;;;;;28.30;36.30;;;;;;20918057;28;19924;-58
2023/06/06 17:29:26;;;;;;;;;;;28.30;34.80;;;;;;20916540;28;20026;-62
2023/06/06 17:39:27;;;;;;;;;;;28.40;34.80;;;;;;20915773;28;19947;-56
2023/06/06 17:49:28;;;;;;;;;;;28.50;33.30;;;;;;20915470;28;20497;-56
2023/06/06 17:59:30;;;;;;;;;;;28.40;33.70;;;;;;20915575;28;20705;-55
2023/06/06 18:09:31;;;;;;;;;;;28.30;34.80;;;;;;20915598;28;19986;-55
2023/06/06 18:19:32;;;;;;;;;;;28.20;34.70;;;;;;20914513;28;19963;-56
2023/06/06 18:29:33;;;;;;;;;;;28.20;34.90;;;;;;20913997;28;19972;-58
2023/06/06 18:39:33;;;;;;;;;;;28.10;35.20;;;;;;20911706;28;19925;-57
2023/06/06 18:49:34;;;;;;;;;;;28.00;35.30;;;;;;20912140;28;20396;-56
2023/06/06 18:59:34;;;;;;;;;;;27.90;34.90;;;;;;20911759;28;19925;-57
2023/06/06 19:09:35;;;;;;;;;;;27.80;34.90;;;;;;20911557;28;19924;-58
2023/06/06 19:19:36;;;;;;;;;;;27.60;35.70;;;;;;20936292;28;19968;-57
2023/06/06 19:29:37;;;;;;;;;;;27.40;35.80;;;;;;20909274;28;19932;-57
2023/06/06 19:39:38;;;;;;;;;;;27.40;36.10;;;;;;20908155;28;20016;-56
2023/06/06 19:49:38;;;;;;;;;;;27.20;36.70;;;;;;20917260;28;19971;-57
2023/06/06 19:59:40;;;;;;;;;;;27.10;37.20;;;;;;20924140;28;19925;-58
2023/06/06 20:09:40;;;;;;;;;;;26.90;37.70;;;;;;20921161;28;19932;-55
2023/06/06 20:19:42;;;;;;;;;;;26.80;38.20;;;;;;20921072;28;20386;-55
2023/06/06 20:29:42;;;;;;;;;;;26.60;38.80;;;;;;20918984;28;19925;-55
2023/06/06 20:39:54;;;;;;;;;;;26.50;39.50;;;;;;20920600;28;19939;-56
2023/06/06 20:49:55;;;;;;;;;;;26.40;39.80;;;;;;20918934;28;20047;-56
2023/06/06 20:59:56;;;;;;;;;;;26.30;39.90;;;;;;20916803;28;20043;-56
2023/06/06 21:09:56;;;;;;;;;;;26.20;40.40;;;;;;20917810;28;20374;-57
2023/06/06 21:19:57;;;;;;;;;;;26.10;41.10;;;;;;20915269;28;19928;-58
2023/06/06 21:29:58;;;;;;;;;;;26.00;41.90;;;;;;20915982;28;20358;-58
2023/06/06 21:39:59;;;;;;;;;;;25.80;42.30;;;;;;20915000;28;19943;-56
2023/06/06 21:50:06;;;;;;;;;;;25.80;42.60;;;;;;20914346;28;20409;-55
2023/06/06 22:00:07;;;;;;;;;;;25.70;42.80;;;;;;20913512;28;20321;-56
2023/06/06 22:10:10;;;;;;;;;;;25.60;43.40;;;;;;20912720;28;19924;-55
2023/06/06 22:20:11;;;;;;;;;;;25.40;43.60;;;;;;20912453;28;19964;-55
2023/06/06 22:30:12;;;;;;;;;;;25.30;43.70;;;;;;20912364;28;19925;-56
2023/06/06 22:40:12;;;;;;;;;;;25.30;43.90;;;;;;20911373;28;19932;-56
2023/06/06 22:50:13;;;;;;;;;;;25.10;43.80;;;;;;20912593;28;20370;-58
2023/06/06 23:00:15;;;;;;;;;;;25.00;43.70;;;;;;20912167;28;19978;-56
2023/06/06 23:10:16;;;;;;;;;;;24.90;43.70;;;;;;20911572;28;19980;-57
2023/06/06 23:20:17;;;;;;;;;;;24.70;43.70;;;;;;20913108;28;20371;-56
2023/06/06 23:30:17;;;;;;;;;;;24.50;44.60;;;;;;20927161;28;19932;-55
2023/06/06 23:40:18;;;;;;;;;;;24.30;45.20;;;;;;20926067;28;19925;-54
2023/06/06 23:50:19;;;;;;;;;;;24.20;46.60;;;;;;20923770;28;19968;-55
